sensor_id;sensor_type;location;lat;lon;timestamp;P1;durP1;ratioP1;P2;durP2;ratioP2
2940;SDS011;1480;51.456;6.670;2024-03-07T00:01:48;32.13;;;19.07;;
2940;SDS011;1480;51.456;6.670;2024-03-07T00:04:15;31.00;;;19.00;;
2940;SDS011;1480;51.456;6.670;2024-03-07T00:06:41;45.07;;;22.07;;
2940;SDS011;1480;51.456;6.670;2024-03-07T00:09:08;35.97;;;20.23;;
2940;SDS011;1480;51.456;6.670;2024-03-07T00:11:36;34.50;;;20.70;;
2940;SDS011;1480;51.456;6.670;2024-03-07T00:14:03;37.57;;;18.77;;
2940;SDS011;1480;51.456;6.670;2024-03-07T00:16:32;34.23;;;17.67;;
2940;SDS011;1480;51.456;6.670;2024-03-07T00:19:00;34.23;;;20.23;;
2940;SDS011;1480;51.456;6.670;2024-03-07T00:21:26;40.97;;;19.97;;
2940;SDS011;1480;51.456;6.670;2024-03-07T00:23:54;37.90;;;18.87;;
2940;SDS011;1480;51.456;6.670;2024-03-07T00:26:20;41.67;;;19.87;;
2940;SDS011;1480;51.456;6.670;2024-03-07T00:28:47;38.40;;;19.30;;
2940;SDS011;1480;51.456;6.670;2024-03-07T00:31:14;39.43;;;20.27;;
2940;SDS011;1480;51.456;6.670;2024-03-07T00:33:42;37.63;;;20.10;;
2940;SDS011;1480;51.456;6.670;2024-03-07T00:36:09;40.30;;;21.10;;
2940;SDS011;1480;51.456;6.670;2024-03-07T00:38:35;35.73;;;18.00;;
2940;SDS011;1480;51.456;6.670;2024-03-07T00:41:02;38.60;;;20.90;;
2940;SDS011;1480;51.456;6.670;2024-03-07T00:43:29;49.17;;;21.63;;
2940;SDS011;1480;51.456;6.670;2024-03-07T00:45:56;43.73;;;24.60;;
2940;SDS011;1480;51.456;6.670;2024-03-07T00:48:23;37.93;;;21.80;;
2940;SDS011;1480;51.456;6.670;2024-03-07T00:50:51;38.17;;;21.20;;
2940;SDS011;1480;51.456;6.670;2024-03-07T00:53:18;40.23;;;20.67;;
2940;SDS011;1480;51.456;6.670;2024-03-07T00:55:44;50.33;;;24.93;;
2940;SDS011;1480;51.456;6.670;2024-03-07T00:58:11;35.77;;;21.20;;
2940;SDS011;1480;51.456;6.670;2024-03-07T01:00:38;42.63;;;20.10;;
2940;SDS011;1480;51.456;6.670;2024-03-07T01:03:08;51.43;;;23.10;;
2940;SDS011;1480;51.456;6.670;2024-03-07T01:05:36;57.57;;;24.23;;
2940;SDS011;1480;51.456;6.670;2024-03-07T01:08:05;38.83;;;21.20;;
2940;SDS011;1480;51.456;6.670;2024-03-07T01:10:32;47.17;;;23.53;;
2940;SDS011;1480;51.456;6.670;2024-03-07T01:12:59;42.57;;;21.90;;
2940;SDS011;1480;51.456;6.670;2024-03-07T01:15:27;47.83;;;24.67;;
2940;SDS011;1480;51.456;6.670;2024-03-07T01:17:54;44.27;;;19.47;;
2940;SDS011;1480;51.456;6.670;2024-03-07T01:20:21;43.03;;;22.00;;
2940;SDS011;1480;51.456;6.670;2024-03-07T01:22:50;49.97;;;22.37;;
2940;SDS011;1480;51.456;6.670;2024-03-07T01:25:18;40.07;;;19.90;;
2940;SDS011;1480;51.456;6.670;2024-03-07T01:27:46;44.50;;;21.77;;
2940;SDS011;1480;51.456;6.670;2024-03-07T01:30:14;33.73;;;18.67;;
2940;SDS011;1480;51.456;6.670;2024-03-07T01:32:41;41.10;;;20.37;;
2940;SDS011;1480;51.456;6.670;2024-03-07T01:35:08;37.37;;;22.70;;
2940;SDS011;1480;51.456;6.670;2024-03-07T01:37:34;49.23;;;23.60;;
2940;SDS011;1480;51.456;6.670;2024-03-07T01:40:01;50.67;;;24.40;;
2940;SDS011;1480;51.456;6.670;2024-03-07T01:42:29;42.80;;;20.50;;
2940;SDS011;1480;51.456;6.670;2024-03-07T01:44:56;40.50;;;24.47;;
2940;SDS011;1480;51.456;6.670;2024-03-07T01:47:24;48.30;;;23.07;;
2940;SDS011;1480;51.456;6.670;2024-03-07T01:49:50;49.27;;;26.20;;
2940;SDS011;1480;51.456;6.670;2024-03-07T01:52:17;43.33;;;25.43;;
2940;SDS011;1480;51.456;6.670;2024-03-07T01:54:44;46.30;;;23.80;;
2940;SDS011;1480;51.456;6.670;2024-03-07T01:57:12;44.40;;;23.63;;
2940;SDS011;1480;51.456;6.670;2024-03-07T01:59:40;45.77;;;22.13;;
2940;SDS011;1480;51.456;6.670;2024-03-07T02:02:08;44.00;;;22.37;;
2940;SDS011;1480;51.456;6.670;2024-03-07T02:04:34;37.93;;;20.93;;
2940;SDS011;1480;51.456;6.670;2024-03-07T02:07:01;46.10;;;23.90;;
2940;SDS011;1480;51.456;6.670;2024-03-07T02:09:28;45.60;;;23.50;;
2940;SDS011;1480;51.456;6.670;2024-03-07T02:11:54;45.70;;;23.40;;
2940;SDS011;1480;51.456;6.670;2024-03-07T02:14:21;45.57;;;22.50;;
2940;SDS011;1480;51.456;6.670;2024-03-07T02:16:49;47.20;;;22.63;;
2940;SDS011;1480;51.456;6.670;2024-03-07T02:19:16;42.70;;;20.57;;
2940;SDS011;1480;51.456;6.670;2024-03-07T02:21:44;44.67;;;20.50;;
2940;SDS011;1480;51.456;6.670;2024-03-07T02:24:11;45.43;;;22.40;;
2940;SDS011;1480;51.456;6.670;2024-03-07T02:26:37;49.33;;;22.90;;
2940;SDS011;1480;51.456;6.670;2024-03-07T02:29:05;41.07;;;22.70;;
2940;SDS011;1480;51.456;6.670;2024-03-07T02:31:31;44.60;;;22.53;;
2940;SDS011;1480;51.456;6.670;2024-03-07T02:34:02;39.70;;;21.87;;
2940;SDS011;1480;51.456;6.670;2024-03-07T02:36:29;37.87;;;21.33;;
2940;SDS011;1480;51.456;6.670;2024-03-07T02:38:57;47.60;;;22.87;;
2940;SDS011;1480;51.456;6.670;2024-03-07T02:41:24;35.83;;;21.80;;
2940;SDS011;1480;51.456;6.670;2024-03-07T02:43:51;40.80;;;20.33;;
2940;SDS011;1480;51.456;6.670;2024-03-07T02:46:18;41.43;;;20.80;;
2940;SDS011;1480;51.456;6.670;2024-03-07T02:48:45;50.63;;;19.40;;
2940;SDS011;1480;51.456;6.670;2024-03-07T02:51:12;51.43;;;23.87;;
2940;SDS011;1480;51.456;6.670;2024-03-07T02:53:39;41.63;;;22.30;;
2940;SDS011;1480;51.456;6.670;2024-03-07T02:56:07;48.10;;;21.40;;
2940;SDS011;1480;51.456;6.670;2024-03-07T02:58:34;43.30;;;21.67;;
2940;SDS011;1480;51.456;6.670;2024-03-07T03:01:01;44.53;;;23.23;;
2940;SDS011;1480;51.456;6.670;2024-03-07T03:03:29;40.77;;;22.20;;
2940;SDS011;1480;51.456;6.670;2024-03-07T03:05:57;44.03;;;22.00;;
2940;SDS011;1480;51.456;6.670;2024-03-07T03:08:24;47.23;;;25.00;;
2940;SDS011;1480;51.456;6.670;2024-03-07T03:10:53;39.27;;;21.40;;
2940;SDS011;1480;51.456;6.670;2024-03-07T03:13:23;39.10;;;22.10;;
2940;SDS011;1480;51.456;6.670;2024-03-07T03:15:53;45.80;;;23.00;;
2940;SDS011;1480;51.456;6.670;2024-03-07T03:18:20;49.57;;;25.40;;
2940;SDS011;1480;51.456;6.670;2024-03-07T03:20:47;50.90;;;23.40;;
2940;SDS011;1480;51.456;6.670;2024-03-07T03:23:15;42.97;;;23.80;;
2940;SDS011;1480;51.456;6.670;2024-03-07T03:25:42;46.93;;;21.40;;
2940;SDS011;1480;51.456;6.670;2024-03-07T03:28:08;41.10;;;20.80;;
2940;SDS011;1480;51.456;6.670;2024-03-07T03:30:37;51.10;;;24.20;;
2940;SDS011;1480;51.456;6.670;2024-03-07T03:33:04;40.33;;;21.57;;
2940;SDS011;1480;51.456;6.670;2024-03-07T03:35:31;44.80;;;22.83;;
2940;SDS011;1480;51.456;6.670;2024-03-07T03:37:58;46.53;;;24.70;;
2940;SDS011;1480;51.456;6.670;2024-03-07T03:40:25;40.33;;;20.97;;
2940;SDS011;1480;51.456;6.670;2024-03-07T03:42:52;48.17;;;22.03;;
2940;SDS011;1480;51.456;6.670;2024-03-07T03:45:18;40.63;;;22.50;;
2940;SDS011;1480;51.456;6.670;2024-03-07T03:47:47;37.57;;;21.57;;
2940;SDS011;1480;51.456;6.670;2024-03-07T03:50:14;48.77;;;23.90;;
2940;SDS011;1480;51.456;6.670;2024-03-07T03:52:41;43.13;;;21.57;;
2940;SDS011;1480;51.456;6.670;2024-03-07T03:55:08;37.80;;;21.93;;
2940;SDS011;1480;51.456;6.670;2024-03-07T03:57:37;46.57;;;19.83;;
2940;SDS011;1480;51.456;6.670;2024-03-07T04:00:05;41.23;;;22.47;;
2940;SDS011;1480;51.456;6.670;2024-03-07T04:02:38;50.97;;;23.40;;
2940;SDS011;1480;51.456;6.670;2024-03-07T04:05:07;49.60;;;21.83;;
2940;SDS011;1480;51.456;6.670;2024-03-07T04:07:34;47.37;;;22.77;;
2940;SDS011;1480;51.456;6.670;2024-03-07T04:10:01;44.63;;;22.60;;
2940;SDS011;1480;51.456;6.670;2024-03-07T04:12:29;50.17;;;23.77;;
2940;SDS011;1480;51.456;6.670;2024-03-07T04:14:56;44.37;;;20.77;;
2940;SDS011;1480;51.456;6.670;2024-03-07T04:17:22;45.53;;;21.20;;
2940;SDS011;1480;51.456;6.670;2024-03-07T04:19:49;42.00;;;23.73;;
2940;SDS011;1480;51.456;6.670;2024-03-07T04:22:17;42.10;;;22.50;;
2940;SDS011;1480;51.456;6.670;2024-03-07T04:24:45;39.53;;;22.50;;
2940;SDS011;1480;51.456;6.670;2024-03-07T04:27:12;44.07;;;22.73;;
2940;SDS011;1480;51.456;6.670;2024-03-07T04:29:38;58.20;;;22.53;;
2940;SDS011;1480;51.456;6.670;2024-03-07T04:32:05;42.90;;;21.13;;
2940;SDS011;1480;51.456;6.670;2024-03-07T04:34:34;40.30;;;22.03;;
2940;SDS011;1480;51.456;6.670;2024-03-07T04:37:01;42.83;;;23.23;;
2940;SDS011;1480;51.456;6.670;2024-03-07T04:39:30;37.67;;;21.00;;
2940;SDS011;1480;51.456;6.670;2024-03-07T04:41:58;42.73;;;24.23;;
2940;SDS011;1480;51.456;6.670;2024-03-07T04:44:26;45.00;;;23.13;;
2940;SDS011;1480;51.456;6.670;2024-03-07T04:46:53;40.57;;;19.50;;
2940;SDS011;1480;51.456;6.670;2024-03-07T04:49:22;38.33;;;21.63;;
2940;SDS011;1480;51.456;6.670;2024-03-07T04:51:49;36.47;;;20.67;;
2940;SDS011;1480;51.456;6.670;2024-03-07T04:54:16;37.50;;;21.57;;
2940;SDS011;1480;51.456;6.670;2024-03-07T04:56:44;40.23;;;20.37;;
2940;SDS011;1480;51.456;6.670;2024-03-07T04:59:11;41.17;;;20.80;;
2940;SDS011;1480;51.456;6.670;2024-03-07T05:01:38;43.53;;;23.40;;
2940;SDS011;1480;51.456;6.670;2024-03-07T05:04:05;38.10;;;20.40;;
2940;SDS011;1480;51.456;6.670;2024-03-07T05:06:32;49.07;;;25.10;;
2940;SDS011;1480;51.456;6.670;2024-03-07T05:08:59;38.73;;;21.10;;
2940;SDS011;1480;51.456;6.670;2024-03-07T05:11:26;36.80;;;20.93;;
2940;SDS011;1480;51.456;6.670;2024-03-07T05:13:54;35.70;;;20.97;;
2940;SDS011;1480;51.456;6.670;2024-03-07T05:16:21;43.50;;;20.83;;
2940;SDS011;1480;51.456;6.670;2024-03-07T05:18:48;51.23;;;19.87;;
2940;SDS011;1480;51.456;6.670;2024-03-07T05:21:15;47.87;;;21.97;;
2940;SDS011;1480;51.456;6.670;2024-03-07T05:24:03;38.20;;;20.37;;
2940;SDS011;1480;51.456;6.670;2024-03-07T05:26:30;41.37;;;20.53;;
2940;SDS011;1480;51.456;6.670;2024-03-07T05:29:00;33.60;;;19.70;;
2940;SDS011;1480;51.456;6.670;2024-03-07T05:31:30;41.80;;;20.37;;
2940;SDS011;1480;51.456;6.670;2024-03-07T05:33:59;35.60;;;19.40;;
2940;SDS011;1480;51.456;6.670;2024-03-07T05:36:26;40.60;;;22.47;;
2940;SDS011;1480;51.456;6.670;2024-03-07T05:38:52;33.17;;;19.70;;
2940;SDS011;1480;51.456;6.670;2024-03-07T05:41:19;37.63;;;20.90;;
2940;SDS011;1480;51.456;6.670;2024-03-07T05:43:46;39.77;;;21.10;;
2940;SDS011;1480;51.456;6.670;2024-03-07T05:46:13;37.43;;;21.00;;
2940;SDS011;1480;51.456;6.670;2024-03-07T05:48:40;33.57;;;19.57;;
2940;SDS011;1480;51.456;6.670;2024-03-07T05:51:07;31.90;;;18.93;;
2940;SDS011;1480;51.456;6.670;2024-03-07T05:53:35;35.70;;;19.30;;
2940;SDS011;1480;51.456;6.670;2024-03-07T05:56:02;41.00;;;19.60;;
2940;SDS011;1480;51.456;6.670;2024-03-07T05:58:29;42.60;;;20.50;;
2940;SDS011;1480;51.456;6.670;2024-03-07T06:00:56;38.37;;;18.27;;
2940;SDS011;1480;51.456;6.670;2024-03-07T06:03:24;45.23;;;21.70;;
2940;SDS011;1480;51.456;6.670;2024-03-07T06:05:51;42.00;;;20.13;;
2940;SDS011;1480;51.456;6.670;2024-03-07T06:08:19;33.00;;;19.80;;
2940;SDS011;1480;51.456;6.670;2024-03-07T06:10:47;45.13;;;20.37;;
2940;SDS011;1480;51.456;6.670;2024-03-07T06:13:15;36.60;;;19.37;;
2940;SDS011;1480;51.456;6.670;2024-03-07T06:15:42;34.80;;;19.97;;
2940;SDS011;1480;51.456;6.670;2024-03-07T06:18:10;41.07;;;21.30;;
2940;SDS011;1480;51.456;6.670;2024-03-07T06:20:40;33.63;;;19.27;;
2940;SDS011;1480;51.456;6.670;2024-03-07T06:23:07;39.43;;;21.27;;
2940;SDS011;1480;51.456;6.670;2024-03-07T06:25:34;35.10;;;21.13;;
2940;SDS011;1480;51.456;6.670;2024-03-07T06:28:02;33.17;;;19.07;;
2940;SDS011;1480;51.456;6.670;2024-03-07T06:30:35;38.03;;;20.73;;
2940;SDS011;1480;51.456;6.670;2024-03-07T06:33:02;37.50;;;19.70;;
2940;SDS011;1480;51.456;6.670;2024-03-07T06:35:29;40.93;;;20.67;;
2940;SDS011;1480;51.456;6.670;2024-03-07T06:37:57;37.60;;;21.27;;
2940;SDS011;1480;51.456;6.670;2024-03-07T06:40:24;39.10;;;20.17;;
2940;SDS011;1480;51.456;6.670;2024-03-07T06:42:50;36.27;;;19.43;;
2940;SDS011;1480;51.456;6.670;2024-03-07T06:45:17;37.10;;;20.47;;
2940;SDS011;1480;51.456;6.670;2024-03-07T06:47:44;39.70;;;19.00;;
2940;SDS011;1480;51.456;6.670;2024-03-07T06:50:12;34.63;;;18.33;;
2940;SDS011;1480;51.456;6.670;2024-03-07T06:52:44;35.60;;;20.60;;
2940;SDS011;1480;51.456;6.670;2024-03-07T06:55:13;41.50;;;19.43;;
2940;SDS011;1480;51.456;6.670;2024-03-07T06:57:42;37.13;;;21.00;;
2940;SDS011;1480;51.456;6.670;2024-03-07T07:00:09;38.40;;;20.27;;
2940;SDS011;1480;51.456;6.670;2024-03-07T07:02:37;40.63;;;21.60;;
2940;SDS011;1480;51.456;6.670;2024-03-07T07:05:04;38.93;;;20.83;;
2940;SDS011;1480;51.456;6.670;2024-03-07T07:07:36;38.47;;;21.33;;
2940;SDS011;1480;51.456;6.670;2024-03-07T07:10:03;38.37;;;19.00;;
2940;SDS011;1480;51.456;6.670;2024-03-07T07:12:35;32.30;;;18.20;;
2940;SDS011;1480;51.456;6.670;2024-03-07T07:15:02;32.07;;;19.60;;
2940;SDS011;1480;51.456;6.670;2024-03-07T07:17:29;34.07;;;19.30;;
2940;SDS011;1480;51.456;6.670;2024-03-07T07:19:57;35.53;;;18.30;;
2940;SDS011;1480;51.456;6.670;2024-03-07T07:22:24;32.80;;;17.63;;
2940;SDS011;1480;51.456;6.670;2024-03-07T07:24:51;30.03;;;18.23;;
2940;SDS011;1480;51.456;6.670;2024-03-07T07:27:18;36.83;;;18.77;;
2940;SDS011;1480;51.456;6.670;2024-03-07T07:29:45;32.50;;;20.40;;
2940;SDS011;1480;51.456;6.670;2024-03-07T07:32:12;29.53;;;16.87;;
2940;SDS011;1480;51.456;6.670;2024-03-07T07:34:38;35.27;;;19.23;;
2940;SDS011;1480;51.456;6.670;2024-03-07T07:37:05;33.80;;;19.00;;
2940;SDS011;1480;51.456;6.670;2024-03-07T07:39:34;37.90;;;21.37;;
2940;SDS011;1480;51.456;6.670;2024-03-07T07:42:00;33.10;;;17.17;;
2940;SDS011;1480;51.456;6.670;2024-03-07T07:44:27;34.50;;;17.43;;
2940;SDS011;1480;51.456;6.670;2024-03-07T07:46:56;38.47;;;17.40;;
2940;SDS011;1480;51.456;6.670;2024-03-07T07:49:23;28.20;;;17.27;;
2940;SDS011;1480;51.456;6.670;2024-03-07T07:51:49;32.77;;;16.80;;
2940;SDS011;1480;51.456;6.670;2024-03-07T07:54:18;30.37;;;16.60;;
2940;SDS011;1480;51.456;6.670;2024-03-07T07:56:46;38.87;;;16.43;;
2940;SDS011;1480;51.456;6.670;2024-03-07T07:59:13;32.97;;;18.23;;
2940;SDS011;1480;51.456;6.670;2024-03-07T08:01:40;30.50;;;16.67;;
2940;SDS011;1480;51.456;6.670;2024-03-07T08:04:08;35.63;;;19.20;;
2940;SDS011;1480;51.456;6.670;2024-03-07T08:06:36;28.93;;;16.83;;
2940;SDS011;1480;51.456;6.670;2024-03-07T08:09:03;30.77;;;15.70;;
2940;SDS011;1480;51.456;6.670;2024-03-07T08:11:32;27.27;;;16.70;;
2940;SDS011;1480;51.456;6.670;2024-03-07T08:13:59;31.23;;;16.27;;
2940;SDS011;1480;51.456;6.670;2024-03-07T08:16:26;34.47;;;16.90;;
2940;SDS011;1480;51.456;6.670;2024-03-07T08:18:52;27.23;;;15.43;;
2940;SDS011;1480;51.456;6.670;2024-03-07T08:21:22;26.30;;;17.27;;
2940;SDS011;1480;51.456;6.670;2024-03-07T08:23:49;35.00;;;18.63;;
2940;SDS011;1480;51.456;6.670;2024-03-07T08:26:15;29.23;;;16.10;;
2940;SDS011;1480;51.456;6.670;2024-03-07T08:28:42;23.17;;;14.00;;
2940;SDS011;1480;51.456;6.670;2024-03-07T08:31:09;29.43;;;15.93;;
2940;SDS011;1480;51.456;6.670;2024-03-07T08:33:36;26.37;;;15.43;;
2940;SDS011;1480;51.456;6.670;2024-03-07T08:36:02;24.87;;;15.33;;
2940;SDS011;1480;51.456;6.670;2024-03-07T08:38:31;27.10;;;13.77;;
2940;SDS011;1480;51.456;6.670;2024-03-07T08:40:58;26.63;;;15.03;;
2940;SDS011;1480;51.456;6.670;2024-03-07T08:43:25;25.20;;;13.20;;
2940;SDS011;1480;51.456;6.670;2024-03-07T08:45:52;26.87;;;16.70;;
2940;SDS011;1480;51.456;6.670;2024-03-07T08:48:19;22.80;;;13.67;;
2940;SDS011;1480;51.456;6.670;2024-03-07T08:50:47;32.90;;;14.77;;
2940;SDS011;1480;51.456;6.670;2024-03-07T08:53:13;23.47;;;14.90;;
2940;SDS011;1480;51.456;6.670;2024-03-07T08:55:42;25.97;;;14.50;;
2940;SDS011;1480;51.456;6.670;2024-03-07T08:58:08;32.40;;;13.57;;
2940;SDS011;1480;51.456;6.670;2024-03-07T09:00:35;32.20;;;14.77;;
2940;SDS011;1480;51.456;6.670;2024-03-07T09:03:02;25.30;;;14.70;;
2940;SDS011;1480;51.456;6.670;2024-03-07T09:05:34;23.53;;;13.40;;
2940;SDS011;1480;51.456;6.670;2024-03-07T09:08:01;17.70;;;12.40;;
2940;SDS011;1480;51.456;6.670;2024-03-07T09:10:28;22.83;;;12.80;;
2940;SDS011;1480;51.456;6.670;2024-03-07T09:12:57;25.77;;;13.40;;
2940;SDS011;1480;51.456;6.670;2024-03-07T09:15:23;23.97;;;13.23;;
2940;SDS011;1480;51.456;6.670;2024-03-07T09:17:50;25.50;;;14.13;;
2940;SDS011;1480;51.456;6.670;2024-03-07T09:20:18;24.90;;;13.03;;
2940;SDS011;1480;51.456;6.670;2024-03-07T09:22:45;22.93;;;14.50;;
2940;SDS011;1480;51.456;6.670;2024-03-07T09:25:12;23.87;;;12.40;;
2940;SDS011;1480;51.456;6.670;2024-03-07T09:27:39;24.37;;;11.63;;
2940;SDS011;1480;51.456;6.670;2024-03-07T09:30:08;20.83;;;13.23;;
2940;SDS011;1480;51.456;6.670;2024-03-07T09:32:37;23.40;;;12.10;;
2940;SDS011;1480;51.456;6.670;2024-03-07T09:35:05;23.73;;;13.23;;
2940;SDS011;1480;51.456;6.670;2024-03-07T09:37:37;30.17;;;11.87;;
2940;SDS011;1480;51.456;6.670;2024-03-07T09:40:05;24.57;;;14.83;;
2940;SDS011;1480;51.456;6.670;2024-03-07T09:42:34;20.20;;;12.93;;
2940;SDS011;1480;51.456;6.670;2024-03-07T09:45:01;16.50;;;11.40;;
2940;SDS011;1480;51.456;6.670;2024-03-07T09:47:30;20.27;;;10.43;;
2940;SDS011;1480;51.456;6.670;2024-03-07T09:49:57;16.33;;;10.97;;
2940;SDS011;1480;51.456;6.670;2024-03-07T09:52:25;16.57;;;11.17;;
2940;SDS011;1480;51.456;6.670;2024-03-07T09:54:52;18.60;;;10.53;;
2940;SDS011;1480;51.456;6.670;2024-03-07T09:57:19;19.23;;;10.30;;
2940;SDS011;1480;51.456;6.670;2024-03-07T09:59:46;16.43;;;9.43;;
2940;SDS011;1480;51.456;6.670;2024-03-07T10:02:13;18.73;;;10.50;;
2940;SDS011;1480;51.456;6.670;2024-03-07T10:04:42;21.60;;;10.70;;
2940;SDS011;1480;51.456;6.670;2024-03-07T10:07:10;19.10;;;11.40;;
2940;SDS011;1480;51.456;6.670;2024-03-07T10:09:39;16.70;;;11.20;;
2940;SDS011;1480;51.456;6.670;2024-03-07T10:12:07;17.20;;;10.33;;
2940;SDS011;1480;51.456;6.670;2024-03-07T10:14:37;17.07;;;10.70;;
2940;SDS011;1480;51.456;6.670;2024-03-07T10:17:04;24.33;;;12.30;;
2940;SDS011;1480;51.456;6.670;2024-03-07T10:19:31;14.27;;;9.33;;
2940;SDS011;1480;51.456;6.670;2024-03-07T10:22:00;17.90;;;10.60;;
2940;SDS011;1480;51.456;6.670;2024-03-07T10:24:31;19.13;;;11.07;;
2940;SDS011;1480;51.456;6.670;2024-03-07T10:26:59;19.20;;;10.60;;
2940;SDS011;1480;51.456;6.670;2024-03-07T10:29:26;19.87;;;11.47;;
2940;SDS011;1480;51.456;6.670;2024-03-07T10:31:53;21.10;;;11.90;;
2940;SDS011;1480;51.456;6.670;2024-03-07T10:34:20;17.47;;;11.03;;
2940;SDS011;1480;51.456;6.670;2024-03-07T10:36:48;24.90;;;10.47;;
2940;SDS011;1480;51.456;6.670;2024-03-07T10:39:18;17.03;;;10.30;;
2940;SDS011;1480;51.456;6.670;2024-03-07T10:41:47;14.83;;;9.47;;
2940;SDS011;1480;51.456;6.670;2024-03-07T10:44:16;17.10;;;9.40;;
2940;SDS011;1480;51.456;6.670;2024-03-07T10:46:46;15.40;;;9.50;;
2940;SDS011;1480;51.456;6.670;2024-03-07T10:49:19;17.30;;;9.87;;
2940;SDS011;1480;51.456;6.670;2024-03-07T10:51:49;19.20;;;10.70;;
2940;SDS011;1480;51.456;6.670;2024-03-07T10:54:28;16.83;;;9.67;;
2940;SDS011;1480;51.456;6.670;2024-03-07T10:57:05;17.20;;;9.23;;
2940;SDS011;1480;51.456;6.670;2024-03-07T10:59:39;17.80;;;10.47;;
2940;SDS011;1480;51.456;6.670;2024-03-07T11:02:12;19.13;;;11.70;;
2940;SDS011;1480;51.456;6.670;2024-03-07T11:04:45;20.60;;;11.30;;
2940;SDS011;1480;51.456;6.670;2024-03-07T11:07:11;17.73;;;10.07;;
2940;SDS011;1480;51.456;6.670;2024-03-07T11:09:40;16.97;;;11.17;;
2940;SDS011;1480;51.456;6.670;2024-03-07T11:12:07;17.97;;;10.60;;
2940;SDS011;1480;51.456;6.670;2024-03-07T11:14:35;20.40;;;12.77;;
2940;SDS011;1480;51.456;6.670;2024-03-07T11:17:03;15.23;;;9.63;;
2940;SDS011;1480;51.456;6.670;2024-03-07T11:19:31;16.73;;;10.80;;
2940;SDS011;1480;51.456;6.670;2024-03-07T11:22:01;19.10;;;10.57;;
2940;SDS011;1480;51.456;6.670;2024-03-07T11:24:44;14.40;;;10.47;;
2940;SDS011;1480;51.456;6.670;2024-03-07T11:27:26;25.60;;;10.63;;
2940;SDS011;1480;51.456;6.670;2024-03-07T11:29:53;18.20;;;10.90;;
2940;SDS011;1480;51.456;6.670;2024-03-07T11:32:21;19.73;;;10.07;;
2940;SDS011;1480;51.456;6.670;2024-03-07T11:34:48;14.50;;;10.30;;
2940;SDS011;1480;51.456;6.670;2024-03-07T11:37:19;16.27;;;9.83;;
2940;SDS011;1480;51.456;6.670;2024-03-07T11:39:49;17.23;;;9.80;;
2940;SDS011;1480;51.456;6.670;2024-03-07T11:42:19;15.67;;;8.73;;
2940;SDS011;1480;51.456;6.670;2024-03-07T11:44:47;22.80;;;9.60;;
2940;SDS011;1480;51.456;6.670;2024-03-07T11:47:14;19.97;;;9.97;;
2940;SDS011;1480;51.456;6.670;2024-03-07T11:49:43;14.33;;;9.90;;
2940;SDS011;1480;51.456;6.670;2024-03-07T11:52:13;23.03;;;10.40;;
2940;SDS011;1480;51.456;6.670;2024-03-07T11:54:42;19.33;;;10.83;;
2940;SDS011;1480;51.456;6.670;2024-03-07T11:57:14;16.33;;;9.67;;
2940;SDS011;1480;51.456;6.670;2024-03-07T11:59:41;16.70;;;10.80;;
2940;SDS011;1480;51.456;6.670;2024-03-07T12:02:11;16.47;;;10.20;;
2940;SDS011;1480;51.456;6.670;2024-03-07T12:04:39;19.17;;;10.70;;
2940;SDS011;1480;51.456;6.670;2024-03-07T12:07:06;21.97;;;12.50;;
2940;SDS011;1480;51.456;6.670;2024-03-07T12:09:36;19.00;;;11.67;;
2940;SDS011;1480;51.456;6.670;2024-03-07T12:12:03;19.30;;;10.80;;
2940;SDS011;1480;51.456;6.670;2024-03-07T12:14:32;15.90;;;11.00;;
2940;SDS011;1480;51.456;6.670;2024-03-07T12:16:59;18.60;;;11.33;;
2940;SDS011;1480;51.456;6.670;2024-03-07T12:19:26;15.17;;;10.37;;
2940;SDS011;1480;51.456;6.670;2024-03-07T12:21:56;19.47;;;10.60;;
2940;SDS011;1480;51.456;6.670;2024-03-07T12:24:23;21.30;;;11.67;;
2940;SDS011;1480;51.456;6.670;2024-03-07T12:26:50;20.27;;;11.60;;
2940;SDS011;1480;51.456;6.670;2024-03-07T12:29:17;15.80;;;10.50;;
2940;SDS011;1480;51.456;6.670;2024-03-07T12:31:46;14.13;;;10.27;;
2940;SDS011;1480;51.456;6.670;2024-03-07T12:34:13;20.47;;;11.60;;
2940;SDS011;1480;51.456;6.670;2024-03-07T12:36:40;20.23;;;11.30;;
2940;SDS011;1480;51.456;6.670;2024-03-07T12:39:21;18.17;;;10.00;;
2940;SDS011;1480;51.456;6.670;2024-03-07T12:41:51;19.73;;;9.87;;
2940;SDS011;1480;51.456;6.670;2024-03-07T12:44:19;16.40;;;10.80;;
2940;SDS011;1480;51.456;6.670;2024-03-07T12:46:47;20.07;;;10.70;;
2940;SDS011;1480;51.456;6.670;2024-03-07T12:49:14;16.20;;;10.40;;
2940;SDS011;1480;51.456;6.670;2024-03-07T12:51:41;18.47;;;11.13;;
2940;SDS011;1480;51.456;6.670;2024-03-07T12:54:08;16.50;;;10.83;;
2940;SDS011;1480;51.456;6.670;2024-03-07T12:56:35;16.60;;;10.30;;
2940;SDS011;1480;51.456;6.670;2024-03-07T12:59:02;17.43;;;11.43;;
2940;SDS011;1480;51.456;6.670;2024-03-07T13:01:29;19.60;;;11.67;;
2940;SDS011;1480;51.456;6.670;2024-03-07T13:03:59;17.37;;;10.23;;
2940;SDS011;1480;51.456;6.670;2024-03-07T13:06:26;15.83;;;10.20;;
2940;SDS011;1480;51.456;6.670;2024-03-07T13:08:54;16.40;;;10.90;;
2940;SDS011;1480;51.456;6.670;2024-03-07T13:11:22;18.10;;;11.80;;
2940;SDS011;1480;51.456;6.670;2024-03-07T13:13:52;18.30;;;10.70;;
2940;SDS011;1480;51.456;6.670;2024-03-07T13:16:20;12.63;;;9.43;;
2940;SDS011;1480;51.456;6.670;2024-03-07T13:18:46;19.07;;;10.90;;
2940;SDS011;1480;51.456;6.670;2024-03-07T13:21:15;19.30;;;11.07;;
2940;SDS011;1480;51.456;6.670;2024-03-07T13:23:43;18.93;;;12.33;;
2940;SDS011;1480;51.456;6.670;2024-03-07T13:26:10;16.60;;;10.60;;
2940;SDS011;1480;51.456;6.670;2024-03-07T13:28:42;24.40;;;11.97;;
2940;SDS011;1480;51.456;6.670;2024-03-07T13:31:09;17.23;;;11.10;;
2940;SDS011;1480;51.456;6.670;2024-03-07T13:33:40;19.00;;;11.87;;
2940;SDS011;1480;51.456;6.670;2024-03-07T13:36:07;14.93;;;12.13;;
2940;SDS011;1480;51.456;6.670;2024-03-07T13:38:38;18.10;;;9.50;;
2940;SDS011;1480;51.456;6.670;2024-03-07T13:41:05;16.10;;;10.80;;
2940;SDS011;1480;51.456;6.670;2024-03-07T13:43:32;16.97;;;9.73;;
2940;SDS011;1480;51.456;6.670;2024-03-07T13:45:59;17.03;;;10.40;;
2940;SDS011;1480;51.456;6.670;2024-03-07T13:48:26;17.20;;;10.40;;
2940;SDS011;1480;51.456;6.670;2024-03-07T13:50:53;17.97;;;10.13;;
2940;SDS011;1480;51.456;6.670;2024-03-07T13:53:20;17.00;;;11.43;;
2940;SDS011;1480;51.456;6.670;2024-03-07T13:56:04;12.37;;;9.10;;
2940;SDS011;1480;51.456;6.670;2024-03-07T13:58:47;14.13;;;9.33;;
2940;SDS011;1480;51.456;6.670;2024-03-07T14:01:23;17.47;;;10.40;;
2940;SDS011;1480;51.456;6.670;2024-03-07T14:04:03;12.10;;;8.37;;
2940;SDS011;1480;51.456;6.670;2024-03-07T14:07:01;18.27;;;9.67;;
2940;SDS011;1480;51.456;6.670;2024-03-07T14:09:42;12.50;;;8.40;;
2940;SDS011;1480;51.456;6.670;2024-03-07T14:12:24;11.47;;;7.87;;
2940;SDS011;1480;51.456;6.670;2024-03-07T14:18:26;14.07;;;8.83;;
2940;SDS011;1480;51.456;6.670;2024-03-07T14:24:35;16.97;;;10.33;;
2940;SDS011;1480;51.456;6.670;2024-03-07T14:27:26;13.20;;;8.37;;
2940;SDS011;1480;51.456;6.670;2024-03-07T14:29:59;13.20;;;8.70;;
2940;SDS011;1480;51.456;6.670;2024-03-07T14:32:37;15.40;;;8.10;;
2940;SDS011;1480;51.456;6.670;2024-03-07T14:35:07;12.57;;;7.60;;
2940;SDS011;1480;51.456;6.670;2024-03-07T14:37:45;12.20;;;7.20;;
2940;SDS011;1480;51.456;6.670;2024-03-07T14:40:15;15.77;;;8.03;;
2940;SDS011;1480;51.456;6.670;2024-03-07T14:42:44;9.57;;;7.40;;
2940;SDS011;1480;51.456;6.670;2024-03-07T14:45:12;10.43;;;6.47;;
2940;SDS011;1480;51.456;6.670;2024-03-07T14:47:42;12.70;;;6.40;;
2940;SDS011;1480;51.456;6.670;2024-03-07T14:50:09;12.23;;;7.07;;
2940;SDS011;1480;51.456;6.670;2024-03-07T14:52:36;10.20;;;6.80;;
2940;SDS011;1480;51.456;6.670;2024-03-07T14:55:06;9.07;;;6.03;;
2940;SDS011;1480;51.456;6.670;2024-03-07T14:57:33;6.93;;;4.60;;
2940;SDS011;1480;51.456;6.670;2024-03-07T15:00:02;9.10;;;6.47;;
2940;SDS011;1480;51.456;6.670;2024-03-07T15:02:39;9.57;;;5.50;;
2940;SDS011;1480;51.456;6.670;2024-03-07T15:05:06;14.33;;;7.00;;